createdAt,value
2023-01-01T00:02:02.892Z,100634.13
2023-01-01T00:04:29.556Z,100633.69
2023-01-01T00:06:56.223Z,100638.25
2023-01-01T00:09:41.319Z,100623.25
2023-01-01T00:12:07.900Z,100618.56
2023-01-01T00:14:34.466Z,100624.66
2023-01-01T00:17:01.041Z,100616.88
2023-01-01T00:19:27.657Z,100630.94
2023-01-01T00:21:54.223Z,100640.28
2023-01-01T00:24:20.777Z,100641.91
2023-01-01T00:26:47.344Z,100645.19
2023-01-01T00:29:13.883Z,100648.44
2023-01-01T00:31:40.533Z,100646.59
2023-01-01T00:34:07.168Z,100643.84
2023-01-01T00:36:33.722Z,100653.41
2023-01-01T00:39:02.041Z,100645.69
2023-01-01T00:41:28.696Z,100653.09
2023-01-01T00:43:55.253Z,100657.25
2023-01-01T00:46:21.870Z,100654.50
2023-01-01T00:48:48.510Z,100650.13
2023-01-01T00:51:15.134Z,100642.50
2023-01-01T00:53:41.730Z,100641.38
2023-01-01T00:56:08.362Z,100645.78
2023-01-01T00:58:34.968Z,100648.00
2023-01-01T01:01:01.696Z,100648.59
2023-01-01T01:03:28.629Z,100647.78
2023-01-01T01:05:55.289Z,100645.34
2023-01-01T01:08:26.996Z,100648.59
2023-01-01T01:11:07.762Z,100652.06
2023-01-01T01:13:34.561Z,100648.31
2023-01-01T01:16:01.217Z,100649.13
2023-01-01T01:18:27.850Z,100645.34
2023-01-01T01:20:54.577Z,100644.75
2023-01-01T01:23:21.149Z,100646.97
2023-01-01T01:25:47.710Z,100649.13
2023-01-01T01:28:14.389Z,100649.19
2023-01-01T01:30:40.978Z,100653.25
2023-01-01T01:33:07.641Z,100668.91
2023-01-01T01:35:34.323Z,100663.72
2023-01-01T01:38:00.911Z,100672.19
2023-01-01T01:40:27.571Z,100682.69
2023-01-01T01:42:54.133Z,100674.41
2023-01-01T01:45:20.672Z,100690.91
2023-01-01T01:47:56.804Z,100690.03
2023-01-01T01:50:35.822Z,100678.84
2023-01-01T01:53:11.696Z,100680.47
2023-01-01T01:55:40.875Z,100675.00
2023-01-01T01:58:08.065Z,100673.00
2023-01-01T02:00:34.675Z,100669.72
2023-01-01T02:03:06.520Z,100668.47
2023-01-01T02:05:33.191Z,100675.00
2023-01-01T02:07:59.837Z,100668.91
2023-01-01T02:10:27.119Z,100657.72
2023-01-01T02:12:53.745Z,100668.31
2023-01-01T02:15:21.453Z,100669.50
2023-01-01T02:17:55.661Z,100664.44
2023-01-01T02:20:33.375Z,100672.41
2023-01-01T02:23:27.117Z,100672.41
2023-01-01T02:26:15.540Z,100675.00
2023-01-01T02:28:57.671Z,100664.06
2023-01-01T02:31:26.865Z,100660.41
2023-01-01T02:33:54.614Z,100656.16
2023-01-01T02:36:22.043Z,100660.94
2023-01-01T02:38:50.503Z,100662.06
2023-01-01T02:41:23.141Z,100666.97
2023-01-01T02:43:49.665Z,100666.97
2023-01-01T02:48:48.590Z,100661.63
2023-01-01T02:51:39.797Z,100661.84
2023-01-01T02:54:32.273Z,100663.69
2023-01-01T02:57:34.179Z,100662.88
2023-01-01T03:00:22.315Z,100658.50
2023-01-01T03:03:11.762Z,100666.66
2023-01-01T03:06:20.082Z,100665.22
2023-01-01T03:09:17.945Z,100657.59
2023-01-01T03:11:52.915Z,100667.44
2023-01-01T03:14:34.664Z,100665.31
2023-01-01T03:17:07.735Z,100658.50
2023-01-01T03:19:35.884Z,100671.63
2023-01-01T03:22:05.589Z,100664.81
2023-01-01T03:24:41.742Z,100660.94
2023-01-01T03:27:11.143Z,100655.78
2023-01-01T03:29:39.837Z,100662.88
2023-01-01T03:32:06.417Z,100662.06
2023-01-01T03:34:36.092Z,100667.56
2023-01-01T03:37:05.548Z,100665.91
2023-01-01T03:39:38.450Z,100665.91
2023-01-01T03:42:29.048Z,100660.41
2023-01-01T03:45:01.765Z,100663.16
2023-01-01T03:47:28.913Z,100673.03
2023-01-01T03:49:56.080Z,100671.38
2023-01-01T03:53:00.259Z,100674.06
2023-01-01T03:55:46.888Z,100672.44
2023-01-01T03:58:15.054Z,100674.66
2023-01-01T04:00:46.729Z,100670.59
2023-01-01T04:03:22.404Z,100671.50
2023-01-01T04:05:48.956Z,100673.09
2023-01-01T04:08:15.591Z,100681.56
2023-01-01T04:10:43.594Z,100679.72
2023-01-01T04:13:10.117Z,100677.03
2023-01-01T04:15:36.625Z,100686.81
2023-01-01T04:18:03.278Z,100684.78
2023-01-01T04:20:29.802Z,100690.47
2023-01-01T04:22:59.964Z,100692.09
2023-01-01T04:25:26.860Z,100691.97
2023-01-01T04:27:53.404Z,100688.63
2023-01-01T04:30:19.987Z,100694.13
2023-01-01T04:32:46.594Z,100693.50
2023-01-01T04:35:13.906Z,100697.38
2023-01-01T04:37:41.105Z,100693.50
2023-01-01T04:40:08.378Z,100699.81
2023-01-01T04:42:35.029Z,100703.88
2023-01-01T04:45:01.619Z,100702.56
2023-01-01T04:47:28.188Z,100706.94
2023-01-01T04:49:54.816Z,100705.97
2023-01-01T04:52:21.651Z,100707.31
2023-01-01T04:54:48.186Z,100707.84
2023-01-01T04:57:14.752Z,100703.44
2023-01-01T04:59:41.469Z,100709.16
2023-01-01T05:02:08.181Z,100709.34
2023-01-01T05:04:34.889Z,100708.88
2023-01-01T05:07:01.453Z,100714.03
2023-01-01T05:09:27.975Z,100713.75
2023-01-01T05:11:55.805Z,100715.97
2023-01-01T05:14:22.385Z,100720.91
2023-01-01T05:16:48.933Z,100723.38
2023-01-01T05:19:15.482Z,100731.91
2023-01-01T05:21:42.051Z,100727.53
2023-01-01T05:24:09.632Z,100728.56
2023-01-01T05:26:39.360Z,100731.31
2023-01-01T05:29:10.302Z,100734.34
2023-01-01T05:31:42.092Z,100735.16
2023-01-01T05:36:38.411Z,100740.97
2023-01-01T05:39:08.760Z,100743.72
2023-01-01T05:41:36.574Z,100729.25
2023-01-01T05:44:04.398Z,100740.66
2023-01-01T05:46:31.029Z,100735.00
2023-01-01T05:48:57.630Z,100746.50
2023-01-01T05:51:25.599Z,100755.03
2023-01-01T05:53:53.324Z,100755.03
2023-01-01T05:56:19.869Z,100750.38
2023-01-01T05:58:46.912Z,100754.47
2023-01-01T06:01:17.293Z,100748.34
2023-01-01T06:03:44.107Z,100752.81
2023-01-01T06:06:15.328Z,100758.00
2023-01-01T06:08:41.951Z,100761.13
2023-01-01T06:11:10.740Z,100766.81
2023-01-01T06:13:37.440Z,100750.06
2023-01-01T06:16:04.128Z,100765.44
2023-01-01T06:18:33.481Z,100763.88
2023-01-01T06:21:08.728Z,100764.38
2023-01-01T06:23:35.291Z,100744.81
2023-01-01T06:26:09.297Z,100762.81
2023-01-01T06:28:35.992Z,100769.41
2023-01-01T06:31:03.593Z,100775.91
2023-01-01T06:33:30.440Z,100766.97
2023-01-01T06:35:57.013Z,100772.09
2023-01-01T06:38:24.681Z,100766.06
2023-01-01T06:41:08.137Z,100770.16
2023-01-01T06:43:35.135Z,100767.41
2023-01-01T06:46:18.734Z,100780.81
2023-01-01T06:48:46.025Z,100779.47
2023-01-01T06:51:16.858Z,100782.66
2023-01-01T06:53:43.432Z,100797.94
2023-01-01T06:56:09.973Z,100799.88
2023-01-01T06:58:36.534Z,100803.97
2023-01-01T07:01:08.265Z,100801.50
2023-01-01T07:03:35.877Z,100805.59
2023-01-01T07:06:02.487Z,100800.69
2023-01-01T07:08:29.095Z,100801.22
2023-01-01T07:10:57.396Z,100802.03
2023-01-01T07:13:25.075Z,100809.44
2023-01-01T07:15:51.729Z,100822.03
2023-01-01T07:18:19.461Z,100816.31
2023-01-01T07:20:53.547Z,100830.31
2023-01-01T07:23:20.121Z,100837.44
2023-01-01T07:25:48.551Z,100826.00
2023-01-01T07:28:15.152Z,100840.19
2023-01-01T07:30:41.844Z,100833.88
2023-01-01T07:33:13.765Z,100847.88
2023-01-01T07:35:40.896Z,100840.56
2023-01-01T07:38:07.492Z,100845.72
2023-01-01T07:40:34.175Z,100856.69
2023-01-01T07:43:00.728Z,100864.91
2023-01-01T07:45:27.330Z,100869.28
2023-01-01T07:47:54.484Z,100878.03
2023-01-01T07:50:21.333Z,100874.25
2023-01-01T07:52:47.877Z,100886.84
2023-01-01T07:55:15.254Z,100891.81
2023-01-01T07:57:43.988Z,100899.53
2023-01-01T08:00:11.692Z,100900.34
2023-01-01T08:02:43.452Z,100890.75
2023-01-01T08:05:10.113Z,100897.59
2023-01-01T08:07:36.684Z,100902.19
2023-01-01T08:10:04.281Z,100902.75
2023-01-01T08:12:30.907Z,100891.34
2023-01-01T08:14:57.654Z,100905.81
2023-01-01T08:17:24.200Z,100906.41
2023-01-01T08:19:51.983Z,100908.88
2023-01-01T08:22:18.759Z,100912.44
2023-01-01T08:24:45.345Z,100909.94
2023-01-01T08:27:15.188Z,100907.28
2023-01-01T08:29:42.270Z,100907.78
2023-01-01T08:32:09.729Z,100905.00
2023-01-01T08:34:36.287Z,100902.31
2023-01-01T08:37:02.835Z,100906.94
2023-01-01T08:39:29.342Z,100911.59
2023-01-01T08:41:55.890Z,100906.16
2023-01-01T08:44:22.574Z,100913.28
2023-01-01T08:46:49.205Z,100901.72
2023-01-01T08:49:15.829Z,100902.84
2023-01-01T08:51:42.396Z,100906.16
2023-01-01T08:54:09.047Z,100899.56
2023-01-01T08:56:37.663Z,100896.59
2023-01-01T08:59:04.735Z,100907.78
2023-01-01T09:01:31.505Z,100913.03
2023-01-01T09:03:58.281Z,100911.41
2023-01-01T09:06:24.907Z,100918.25
2023-01-01T09:08:51.555Z,100897.50
2023-01-01T09:11:26.704Z,100925.34
2023-01-01T09:13:53.407Z,100916.31
2023-01-01T09:16:20.085Z,100922.38
2023-01-01T09:18:46.663Z,100925.19
2023-01-01T09:21:13.197Z,100933.91
2023-01-01T09:23:40.131Z,100936.38
2023-01-01T09:26:07.665Z,100934.72
2023-01-01T09:28:34.644Z,100946.50
2023-01-01T09:31:01.776Z,100953.41
2023-01-01T09:33:28.648Z,100948.50
2023-01-01T09:35:55.197Z,100950.44
2023-01-01T09:38:21.762Z,100944.94
2023-01-01T09:41:15.738Z,100963.88
2023-01-01T09:43:54.215Z,100970.44
2023-01-01T09:46:27.934Z,100974.06
2023-01-01T09:49:03.456Z,100971.09
2023-01-01T09:51:31.952Z,100980.41
2023-01-01T09:54:37.221Z,100972.69
2023-01-01T09:57:06.639Z,100979.22
2023-01-01T09:59:33.210Z,100982.22
2023-01-01T10:02:10.734Z,100977.56
2023-01-01T10:05:08.923Z,100974.75
2023-01-01T10:07:41.952Z,100973.69
2023-01-01T10:10:14.358Z,100963.47
2023-01-01T10:13:02.656Z,100966.19
2023-01-01T10:15:34.564Z,100964.84
2023-01-01T10:18:08.918Z,100961.88
2023-01-01T10:20:44.735Z,100962.72
2023-01-01T10:23:19.865Z,100964.94
2023-01-01T10:25:46.553Z,100951.19
2023-01-01T10:28:42.165Z,100947.13
2023-01-01T10:31:15.359Z,100947.59
2023-01-01T10:33:42.089Z,100950.03
2023-01-01T10:36:10.879Z,100942.91
2023-01-01T10:38:37.402Z,100939.53
2023-01-01T10:41:07.717Z,100929.13
2023-01-01T10:43:35.858Z,100926.69
2023-01-01T10:46:02.788Z,100923.06
2023-01-01T10:48:33.256Z,100924.19
2023-01-01T10:51:04.582Z,100916.47
2023-01-01T10:53:41.717Z,100915.38
2023-01-01T10:56:12.058Z,100926.34
2023-01-01T10:58:45.539Z,100915.91
2023-01-01T11:01:19.611Z,100918.06
2023-01-01T11:04:08.560Z,100921.56
2023-01-01T11:06:42.460Z,100916.31
2023-01-01T11:09:21.833Z,100914.09
2023-01-01T11:12:09.529Z,100909.19
2023-01-01T11:14:53.697Z,100920.22
2023-01-01T11:17:21.629Z,100912.00
2023-01-01T11:19:51.929Z,100897.78
2023-01-01T11:22:43.559Z,100904.34
2023-01-01T11:25:27.008Z,100899.09
2023-01-01T11:28:12.349Z,100905.47
2023-01-01T11:30:38.936Z,100899.41
2023-01-01T11:33:05.530Z,100890.63
2023-01-01T11:35:33.527Z,100883.75
2023-01-01T11:38:00.175Z,100885.09
2023-01-01T11:40:35.932Z,100877.22
2023-01-01T11:43:04.051Z,100878.59
2023-01-01T11:45:40.956Z,100876.41
2023-01-01T11:48:43.113Z,100867.66
2023-01-01T11:51:11.539Z,100863.56
2023-01-01T11:53:41.109Z,100859.50
2023-01-01T11:56:23.163Z,100853.94
2023-01-01T11:59:00.401Z,100862.06
2023-01-01T12:01:36.021Z,100855.56
2023-01-01T12:04:07.143Z,100849.59
2023-01-01T12:06:41.472Z,100852.84
2023-01-01T12:09:23.449Z,100852.84
2023-01-01T12:12:06.520Z,100852.78
2023-01-01T12:14:33.222Z,100845.38
2023-01-01T12:17:21.145Z,100841.28
2023-01-01T12:20:09.966Z,100846.13
2023-01-01T12:22:36.569Z,100837.09
2023-01-01T12:25:03.474Z,100836.78
2023-01-01T12:28:04.738Z,100827.53
2023-01-01T12:30:50.213Z,100840.06
2023-01-01T12:33:38.452Z,100835.31
2023-01-01T12:36:23.477Z,100832.34
2023-01-01T12:39:18.008Z,100826.13
2023-01-01T12:42:07.596Z,100827.75
2023-01-01T12:44:40.008Z,100821.44
2023-01-01T12:47:44.182Z,100818.19
2023-01-01T12:50:22.174Z,100819.56
2023-01-01T12:53:26.377Z,100826.47
2023-01-01T12:56:04.929Z,100817.13
2023-01-01T12:58:46.182Z,100808.81
2023-01-01T13:01:28.323Z,100808.59
2023-01-01T13:04:00.340Z,100802.31
2023-01-01T13:06:50.898Z,100805.00
2023-01-01T13:09:25.769Z,100800.38
2023-01-01T13:11:57.836Z,100807.22
2023-01-01T13:14:24.422Z,100798.00
2023-01-01T13:16:54.747Z,100798.00
2023-01-01T13:19:31.929Z,100794.06
2023-01-01T13:22:21.682Z,100811.66
2023-01-01T13:25:16.621Z,100797.50
2023-01-01T13:28:03.017Z,100796.97
2023-01-01T13:30:35.322Z,100798.66
2023-01-01T13:33:23.340Z,100802.22
2023-01-01T13:36:11.196Z,100803.59
2023-01-01T13:38:53.192Z,100806.66
2023-01-01T13:41:32.483Z,100804.06
2023-01-01T13:44:03.023Z,100802.00
2023-01-01T13:46:38.683Z,100797.91
2023-01-01T13:49:23.976Z,100790.44
2023-01-01T13:52:15.411Z,100799.56
2023-01-01T13:55:05.765Z,100789.91
2023-01-01T13:58:13.248Z,100791.03
2023-01-01T14:01:12.340Z,100789.97
2023-01-01T14:03:42.508Z,100789.97
2023-01-01T14:06:15.118Z,100789.44
2023-01-01T14:08:41.632Z,100795.69
2023-01-01T14:11:23.647Z,100801.53
2023-01-01T14:13:50.241Z,100793.00
2023-01-01T14:16:16.873Z,100800.50
2023-01-01T14:18:51.368Z,100790.56
2023-01-01T14:21:22.630Z,100790.88
2023-01-01T14:23:56.864Z,100793.63
2023-01-01T14:26:25.297Z,100796.06
2023-01-01T14:29:08.939Z,100799.09
2023-01-01T14:31:43.474Z,100793.53
2023-01-01T14:34:26.448Z,100790.75
2023-01-01T14:36:54.715Z,100784.72
2023-01-01T14:39:27.915Z,100791.47
2023-01-01T14:41:55.904Z,100767.88
2023-01-01T14:44:24.251Z,100779.59
2023-01-01T14:46:52.598Z,100780.19
2023-01-01T14:49:31.234Z,100779.38
2023-01-01T14:52:00.998Z,100781.31
2023-01-01T14:54:31.341Z,100778.56
2023-01-01T14:56:57.946Z,100780.22
2023-01-01T14:59:25.438Z,100781.31
2023-01-01T15:02:14.776Z,100776.63
2023-01-01T15:04:41.597Z,100769.81
2023-01-01T15:07:30.406Z,100773.31
2023-01-01T15:10:03.586Z,100774.94
2023-01-01T15:12:30.634Z,100782.41
2023-01-01T15:14:58.109Z,100790.66
2023-01-01T15:17:25.755Z,100789.63
2023-01-01T15:20:02.618Z,100793.94
2023-01-01T15:22:31.244Z,100786.25
2023-01-01T15:24:58.778Z,100779.25
2023-01-01T15:27:27.192Z,100773.19
2023-01-01T15:29:53.886Z,100776.66
2023-01-01T15:32:31.756Z,100777.50
2023-01-01T15:35:27.683Z,100773.91
2023-01-01T15:38:12.071Z,100775.03
2023-01-01T15:40:40.204Z,100763.38
2023-01-01T15:43:15.729Z,100769.31
2023-01-01T15:45:42.550Z,100756.78
2023-01-01T15:48:12.181Z,100754.63
2023-01-01T15:50:44.073Z,100748.34
2023-01-01T15:53:23.205Z,100741.47
2023-01-01T15:56:00.149Z,100751.25
2023-01-01T15:58:34.715Z,100749.16
2023-01-01T16:01:03.228Z,100743.97
2023-01-01T16:03:30.589Z,100745.91
2023-01-01T16:05:57.204Z,100729.59
2023-01-01T16:08:24.690Z,100754.41
2023-01-01T16:10:51.507Z,100751.88
2023-01-01T16:13:18.241Z,100747.56
2023-01-01T16:15:55.841Z,100747.88
2023-01-01T16:18:30.909Z,100750.94
2023-01-01T16:20:57.585Z,100743.78
2023-01-01T16:23:24.194Z,100738.84
2023-01-01T16:25:50.868Z,100745.44
2023-01-01T16:28:17.444Z,100750.38
2023-01-01T16:30:44.294Z,100750.84
2023-01-01T16:33:14.382Z,100747.84
2023-01-01T16:35:41.024Z,100739.34
2023-01-01T16:38:07.661Z,100733.88
2023-01-01T16:40:37.854Z,100740.47
2023-01-01T16:43:05.872Z,100732.25
2023-01-01T16:45:32.527Z,100724.63
2023-01-01T16:47:59.145Z,100731.75
2023-01-01T16:50:26.661Z,100730.09
2023-01-01T16:52:54.755Z,100722.47
2023-01-01T16:55:21.417Z,100724.38
2023-01-01T16:57:48.084Z,100718.28
2023-01-01T17:00:14.975Z,100714.19
2023-01-01T17:02:42.042Z,100708.84
2023-01-01T17:05:09.814Z,100708.19
2023-01-01T17:07:36.427Z,100705.78
2023-01-01T17:10:04.425Z,100708.84
2023-01-01T17:12:31.431Z,100703.81
2023-01-01T17:14:58.003Z,100706.25
2023-01-01T17:17:26.472Z,100690.66
2023-01-01T17:19:52.989Z,100686.25
2023-01-01T17:22:21.232Z,100692.28
2023-01-01T17:24:47.842Z,100698.66
2023-01-01T17:27:14.459Z,100701.38
2023-01-01T17:29:41.103Z,100691.00
2023-01-01T17:32:07.782Z,100688.53
2023-01-01T17:34:34.401Z,100686.94
2023-01-01T17:37:01.136Z,100694.59
2023-01-01T17:39:27.751Z,100684.41
2023-01-01T17:41:54.422Z,100686.03
2023-01-01T17:44:21.096Z,100674.22
2023-01-01T17:46:47.905Z,100675.84
2023-01-01T17:49:14.598Z,100672.56
2023-01-01T17:51:41.322Z,100671.75
2023-01-01T17:54:13.049Z,100664.44
2023-01-01T17:56:40.294Z,100664.34
2023-01-01T17:59:07.133Z,100663.31
2023-01-01T18:01:35.421Z,100665.81
2023-01-01T18:04:04.465Z,100658.50
2023-01-01T18:06:34.067Z,100665.59
2023-01-01T18:09:04.241Z,100650.31
2023-01-01T18:11:31.348Z,100661.16
2023-01-01T18:13:58.563Z,100670.50
2023-01-01T18:16:25.429Z,100659.00
2023-01-01T18:18:52.147Z,100661.59
2023-01-01T18:21:23.741Z,100649.03
2023-01-01T18:23:51.425Z,100644.34
2023-01-01T18:26:18.231Z,100650.41
2023-01-01T18:28:44.911Z,100654.50
2023-01-01T18:31:16.743Z,100643.31
2023-01-01T18:33:43.594Z,100630.97
2023-01-01T18:36:14.869Z,100641.75
2023-01-01T18:38:44.219Z,100635.25
2023-01-01T18:41:40.625Z,100630.97
2023-01-01T18:44:22.501Z,100626.66
2023-01-01T18:47:00.907Z,100626.66
2023-01-01T18:49:27.738Z,100626.06
2023-01-01T18:51:56.358Z,100632.00
2023-01-01T18:54:23.812Z,100629.91
2023-01-01T18:56:51.749Z,100636.50
2023-01-01T18:59:21.160Z,100634.22
2023-01-01T19:01:51.151Z,100631.56
2023-01-01T19:04:19.503Z,100635.38
2023-01-01T19:06:46.808Z,100628.81
2023-01-01T19:09:13.350Z,100620.00
2023-01-01T19:11:40.059Z,100600.91
2023-01-01T19:14:15.244Z,100623.03
2023-01-01T19:16:41.890Z,100621.03
2023-01-01T19:19:21.647Z,100613.94
2023-01-01T19:21:52.203Z,100616.16
2023-01-01T19:24:26.510Z,100615.13
2023-01-01T19:26:58.449Z,100622.97
2023-01-01T19:29:25.246Z,100618.13
2023-01-01T19:31:55.839Z,100612.44
2023-01-01T19:34:23.193Z,100609.91
2023-01-01T19:36:49.906Z,100615.84
2023-01-01T19:39:16.622Z,100602.59
2023-01-01T19:41:43.274Z,100610.66
2023-01-01T19:44:10.552Z,100609.06
2023-01-01T19:46:38.657Z,100610.44
2023-01-01T19:49:05.370Z,100591.81
2023-01-01T19:51:32.040Z,100597.13
2023-01-01T19:53:58.673Z,100597.16
2023-01-01T19:56:25.320Z,100599.63
2023-01-01T19:58:51.995Z,100604.75
2023-01-01T20:01:18.947Z,100604.97
2023-01-01T20:03:55.400Z,100598.47
2023-01-01T20:06:23.366Z,100601.25
2023-01-01T20:08:50.063Z,100596.91
2023-01-01T20:11:16.730Z,100591.69
2023-01-01T20:13:43.483Z,100592.16
2023-01-01T20:16:10.116Z,100596.22
2023-01-01T20:18:36.941Z,100597.66
2023-01-01T20:21:26.292Z,100604.75
2023-01-01T20:23:53.197Z,100565.66
2023-01-01T20:26:20.690Z,100595.56
2023-01-01T20:29:05.907Z,100606.16
2023-01-01T20:31:32.633Z,100591.69
2023-01-01T20:33:59.292Z,100610.50
2023-01-01T20:36:44.460Z,100597.16
2023-01-01T20:39:11.140Z,100594.59
2023-01-01T20:41:37.821Z,100601.56
2023-01-01T20:44:04.498Z,100594.91
2023-01-01T20:46:33.138Z,100603.13
2023-01-01T20:48:59.874Z,100615.97
2023-01-01T20:51:26.542Z,100612.44
2023-01-01T20:53:53.200Z,100617.31
2023-01-01T20:56:19.812Z,100613.03
2023-01-01T20:58:50.148Z,100624.78
2023-01-01T21:01:19.190Z,100619.69
2023-01-01T21:03:45.940Z,100624.56
2023-01-01T21:06:12.580Z,100619.94
2023-01-01T21:08:39.160Z,100616.56
2023-01-01T21:11:05.815Z,100627.25
2023-01-01T21:13:32.355Z,100618.00
2023-01-01T21:16:05.149Z,100613.38
2023-01-01T21:18:31.801Z,100622.03
2023-01-01T21:20:58.455Z,100628.88
2023-01-01T21:23:27.265Z,100630.03
2023-01-01T21:25:53.960Z,100605.59
2023-01-01T21:28:20.556Z,100624.56
2023-01-01T21:30:54.571Z,100625.41
2023-01-01T21:33:31.216Z,100633.66
2023-01-01T21:35:58.089Z,100631.47
2023-01-01T21:38:28.435Z,100632.78
2023-01-01T21:41:01.995Z,100647.53
2023-01-01T21:43:40.970Z,100644.28
2023-01-01T21:46:07.544Z,100642.06
2023-01-01T21:48:55.987Z,100635.50
2023-01-01T21:51:24.462Z,100636.13
2023-01-01T21:53:51.229Z,100626.34
2023-01-01T21:56:32.308Z,100625.44
2023-01-01T21:59:21.520Z,100629.00
2023-01-01T22:01:49.094Z,100631.25
2023-01-01T22:04:21.257Z,100623.53
2023-01-01T22:10:25.058Z,100627.59
2023-01-01T22:12:57.867Z,100637.53
2023-01-01T22:15:30.314Z,100625.75
2023-01-01T22:18:16.230Z,100631.47
2023-01-01T22:20:43.831Z,100615.31
2023-01-01T22:23:19.353Z,100623.75
2023-01-01T22:25:46.266Z,100631.81
2023-01-01T22:28:23.667Z,100627.06
2023-01-01T22:30:58.247Z,100621.31
2023-01-01T22:33:28.946Z,100617.47
2023-01-01T22:35:56.134Z,100627.97
2023-01-01T22:38:25.178Z,100625.28
2023-01-01T22:40:51.828Z,100624.34
2023-01-01T22:43:27.923Z,100617.81
2023-01-01T22:45:54.598Z,100617.81
2023-01-01T22:48:27.048Z,100624.34
2023-01-01T22:50:56.686Z,100609.38
2023-01-01T22:53:23.262Z,100610.50
2023-01-01T22:55:49.805Z,100619.44
2023-01-01T22:58:16.649Z,100621.94
2023-01-01T23:00:43.323Z,100618.13
2023-01-01T23:03:10.073Z,100606.72
2023-01-01T23:05:36.795Z,100612.13
2023-01-01T23:08:03.392Z,100615.91
2023-01-01T23:10:29.989Z,100620.28
2023-01-01T23:12:56.709Z,100610.13
2023-01-01T23:15:41.653Z,100609.34
2023-01-01T23:18:09.399Z,100612.34
2023-01-01T23:20:35.969Z,100601.13
2023-01-01T23:23:02.551Z,100599.00
2023-01-01T23:25:29.139Z,100599.78
2023-01-01T23:27:55.807Z,100598.72
2023-01-01T23:30:22.451Z,100591.97
2023-01-01T23:32:48.992Z,100613.50
2023-01-01T23:35:16.002Z,100613.75
2023-01-01T23:37:42.620Z,100615.38
2023-01-01T23:40:10.067Z,100609.97
2023-01-01T23:45:03.133Z,100597.91
2023-01-01T23:47:29.734Z,100594.66
2023-01-01T23:49:56.315Z,100596.84
2023-01-01T23:52:22.846Z,100598.50
2023-01-01T23:54:49.369Z,100596.84
2023-01-01T23:59:42.331Z,100581.38
